sensor_id;sensor_type;location;lat;lon;timestamp;P1;durP1;ratioP1;P2;durP2;ratioP2
19589;SDS011;12231;42.782;23.388;2022-12-20T00:02:24;15.40;;;8.13;;
19589;SDS011;12231;42.782;23.388;2022-12-20T00:04:50;12.90;;;8.27;;
19589;SDS011;12231;42.782;23.388;2022-12-20T00:07:15;18.73;;;9.60;;
19589;SDS011;12231;42.782;23.388;2022-12-20T00:09:41;32.40;;;13.63;;
19589;SDS011;12231;42.782;23.388;2022-12-20T00:12:06;36.27;;;16.53;;
19589;SDS011;12231;42.782;23.388;2022-12-20T00:14:31;37.37;;;16.13;;
19589;SDS011;12231;42.782;23.388;2022-12-20T00:16:57;26.30;;;13.60;;
19589;SDS011;12231;42.782;23.388;2022-12-20T00:19:22;22.57;;;11.90;;
19589;SDS011;12231;42.782;23.388;2022-12-20T00:21:47;27.00;;;11.73;;
19589;SDS011;12231;42.782;23.388;2022-12-20T00:24:13;17.97;;;10.10;;
19589;SDS011;12231;42.782;23.388;2022-12-20T00:26:39;22.73;;;10.93;;
19589;SDS011;12231;42.782;23.388;2022-12-20T00:29:04;19.10;;;9.37;;
19589;SDS011;12231;42.782;23.388;2022-12-20T00:31:30;24.70;;;11.03;;
19589;SDS011;12231;42.782;23.388;2022-12-20T00:33:57;19.13;;;8.80;;
19589;SDS011;12231;42.782;23.388;2022-12-20T00:36:24;19.47;;;9.70;;
19589;SDS011;12231;42.782;23.388;2022-12-20T00:38:51;16.30;;;8.40;;
19589;SDS011;12231;42.782;23.388;2022-12-20T00:41:19;17.00;;;8.43;;
19589;SDS011;12231;42.782;23.388;2022-12-20T00:43:46;23.80;;;10.70;;
19589;SDS011;12231;42.782;23.388;2022-12-20T00:46:12;16.00;;;8.03;;
19589;SDS011;12231;42.782;23.388;2022-12-20T00:48:39;14.13;;;8.20;;
19589;SDS011;12231;42.782;23.388;2022-12-20T00:51:09;17.17;;;8.43;;
19589;SDS011;12231;42.782;23.388;2022-12-20T00:53:36;15.83;;;7.90;;
19589;SDS011;12231;42.782;23.388;2022-12-20T00:56:03;15.10;;;7.00;;
19589;SDS011;12231;42.782;23.388;2022-12-20T00:58:30;14.10;;;7.60;;
19589;SDS011;12231;42.782;23.388;2022-12-20T01:00:59;16.47;;;8.57;;
19589;SDS011;12231;42.782;23.388;2022-12-20T01:03:25;17.23;;;8.33;;
19589;SDS011;12231;42.782;23.388;2022-12-20T01:05:56;15.03;;;7.20;;
19589;SDS011;12231;42.782;23.388;2022-12-20T01:08:26;14.63;;;6.50;;
19589;SDS011;12231;42.782;23.388;2022-12-20T01:10:57;11.63;;;6.73;;
19589;SDS011;12231;42.782;23.388;2022-12-20T01:13:44;13.70;;;6.97;;
19589;SDS011;12231;42.782;23.388;2022-12-20T01:18:46;11.37;;;6.23;;
19589;SDS011;12231;42.782;23.388;2022-12-20T01:21:13;12.00;;;7.37;;
19589;SDS011;12231;42.782;23.388;2022-12-20T01:23:40;14.07;;;8.17;;
19589;SDS011;12231;42.782;23.388;2022-12-20T01:26:07;14.67;;;7.77;;
19589;SDS011;12231;42.782;23.388;2022-12-20T01:28:36;12.30;;;7.30;;
19589;SDS011;12231;42.782;23.388;2022-12-20T01:31:09;13.60;;;6.20;;
19589;SDS011;12231;42.782;23.388;2022-12-20T01:33:36;11.43;;;6.50;;
19589;SDS011;12231;42.782;23.388;2022-12-20T01:36:05;12.20;;;7.10;;
19589;SDS011;12231;42.782;23.388;2022-12-20T01:38:34;15.70;;;7.40;;
19589;SDS011;12231;42.782;23.388;2022-12-20T01:41:00;15.27;;;7.80;;
19589;SDS011;12231;42.782;23.388;2022-12-20T01:43:43;14.83;;;7.97;;
19589;SDS011;12231;42.782;23.388;2022-12-20T01:46:09;15.87;;;7.57;;
19589;SDS011;12231;42.782;23.388;2022-12-20T01:48:35;15.27;;;7.43;;
19589;SDS011;12231;42.782;23.388;2022-12-20T01:51:00;12.20;;;7.30;;
19589;SDS011;12231;42.782;23.388;2022-12-20T01:53:26;13.63;;;6.90;;
19589;SDS011;12231;42.782;23.388;2022-12-20T01:55:51;15.97;;;7.40;;
19589;SDS011;12231;42.782;23.388;2022-12-20T01:58:17;14.53;;;8.13;;
19589;SDS011;12231;42.782;23.388;2022-12-20T02:00:45;14.17;;;7.50;;
19589;SDS011;12231;42.782;23.388;2022-12-20T02:03:12;12.53;;;7.00;;
19589;SDS011;12231;42.782;23.388;2022-12-20T02:05:40;21.53;;;9.20;;
19589;SDS011;12231;42.782;23.388;2022-12-20T02:08:09;14.67;;;8.00;;
19589;SDS011;12231;42.782;23.388;2022-12-20T02:13:28;10.87;;;6.93;;
19589;SDS011;12231;42.782;23.388;2022-12-20T02:16:09;10.60;;;6.50;;
19589;SDS011;12231;42.782;23.388;2022-12-20T02:18:43;12.07;;;6.97;;
19589;SDS011;12231;42.782;23.388;2022-12-20T02:32:29;13.00;;;5.73;;
19589;SDS011;12231;42.782;23.388;2022-12-20T02:35:01;11.17;;;6.60;;
19589;SDS011;12231;42.782;23.388;2022-12-20T02:37:28;12.57;;;6.27;;
19589;SDS011;12231;42.782;23.388;2022-12-20T02:39:54;12.30;;;6.73;;
19589;SDS011;12231;42.782;23.388;2022-12-20T02:42:20;11.30;;;6.47;;
19589;SDS011;12231;42.782;23.388;2022-12-20T02:44:59;9.47;;;6.10;;
19589;SDS011;12231;42.782;23.388;2022-12-20T02:47:48;12.43;;;6.80;;
19589;SDS011;12231;42.782;23.388;2022-12-20T02:50:24;12.23;;;7.00;;
19589;SDS011;12231;42.782;23.388;2022-12-20T02:52:52;19.03;;;8.20;;
19589;SDS011;12231;42.782;23.388;2022-12-20T02:55:19;12.90;;;7.37;;
19589;SDS011;12231;42.782;23.388;2022-12-20T02:57:57;12.20;;;6.87;;
19589;SDS011;12231;42.782;23.388;2022-12-20T03:00:26;13.03;;;6.53;;
19589;SDS011;12231;42.782;23.388;2022-12-20T03:02:58;13.57;;;7.60;;
19589;SDS011;12231;42.782;23.388;2022-12-20T03:05:44;11.13;;;6.53;;
19589;SDS011;12231;42.782;23.388;2022-12-20T03:08:12;11.37;;;6.70;;
19589;SDS011;12231;42.782;23.388;2022-12-20T03:10:37;16.10;;;7.87;;
19589;SDS011;12231;42.782;23.388;2022-12-20T03:13:03;15.40;;;7.47;;
19589;SDS011;12231;42.782;23.388;2022-12-20T03:15:28;15.27;;;8.07;;
19589;SDS011;12231;42.782;23.388;2022-12-20T03:17:54;13.80;;;6.87;;
19589;SDS011;12231;42.782;23.388;2022-12-20T03:20:19;9.57;;;5.87;;
19589;SDS011;12231;42.782;23.388;2022-12-20T03:22:45;10.07;;;6.00;;
19589;SDS011;12231;42.782;23.388;2022-12-20T03:25:10;10.10;;;6.33;;
19589;SDS011;12231;42.782;23.388;2022-12-20T03:27:36;10.73;;;6.67;;
19589;SDS011;12231;42.782;23.388;2022-12-20T03:30:01;13.37;;;6.30;;
19589;SDS011;12231;42.782;23.388;2022-12-20T03:32:28;11.30;;;7.03;;
19589;SDS011;12231;42.782;23.388;2022-12-20T03:34:53;10.57;;;7.40;;
19589;SDS011;12231;42.782;23.388;2022-12-20T03:37:19;11.40;;;6.83;;
19589;SDS011;12231;42.782;23.388;2022-12-20T03:39:44;14.00;;;7.67;;
19589;SDS011;12231;42.782;23.388;2022-12-20T03:42:09;15.03;;;7.93;;
19589;SDS011;12231;42.782;23.388;2022-12-20T03:44:35;15.50;;;7.63;;
19589;SDS011;12231;42.782;23.388;2022-12-20T03:47:00;13.43;;;8.13;;
19589;SDS011;12231;42.782;23.388;2022-12-20T03:49:26;14.97;;;8.60;;
19589;SDS011;12231;42.782;23.388;2022-12-20T03:51:51;15.63;;;8.43;;
19589;SDS011;12231;42.782;23.388;2022-12-20T03:54:17;15.83;;;8.47;;
19589;SDS011;12231;42.782;23.388;2022-12-20T03:56:42;24.07;;;11.27;;
19589;SDS011;12231;42.782;23.388;2022-12-20T03:59:08;19.93;;;10.30;;
19589;SDS011;12231;42.782;23.388;2022-12-20T04:01:33;21.37;;;10.10;;
19589;SDS011;12231;42.782;23.388;2022-12-20T04:04:01;19.40;;;10.63;;
19589;SDS011;12231;42.782;23.388;2022-12-20T04:06:27;20.00;;;10.27;;
19589;SDS011;12231;42.782;23.388;2022-12-20T04:08:52;25.77;;;11.53;;
19589;SDS011;12231;42.782;23.388;2022-12-20T04:11:18;23.67;;;11.20;;
19589;SDS011;12231;42.782;23.388;2022-12-20T04:13:47;18.90;;;10.47;;
19589;SDS011;12231;42.782;23.388;2022-12-20T04:16:15;17.67;;;10.53;;
19589;SDS011;12231;42.782;23.388;2022-12-20T04:18:45;16.30;;;10.43;;
19589;SDS011;12231;42.782;23.388;2022-12-20T04:21:11;20.20;;;11.03;;
19589;SDS011;12231;42.782;23.388;2022-12-20T04:23:37;16.10;;;9.43;;
19589;SDS011;12231;42.782;23.388;2022-12-20T04:26:04;51.50;;;24.23;;
19589;SDS011;12231;42.782;23.388;2022-12-20T04:28:31;153.20;;;77.17;;
19589;SDS011;12231;42.782;23.388;2022-12-20T04:30:57;37.47;;;21.47;;
19589;SDS011;12231;42.782;23.388;2022-12-20T04:33:23;15.10;;;10.03;;
19589;SDS011;12231;42.782;23.388;2022-12-20T04:35:49;16.10;;;9.27;;
19589;SDS011;12231;42.782;23.388;2022-12-20T04:38:16;28.87;;;16.10;;
19589;SDS011;12231;42.782;23.388;2022-12-20T04:40:42;14.83;;;9.47;;
19589;SDS011;12231;42.782;23.388;2022-12-20T04:43:07;35.83;;;19.07;;
19589;SDS011;12231;42.782;23.388;2022-12-20T04:45:33;48.20;;;22.53;;
19589;SDS011;12231;42.782;23.388;2022-12-20T04:47:58;18.13;;;10.03;;
19589;SDS011;12231;42.782;23.388;2022-12-20T04:50:24;30.07;;;17.13;;
19589;SDS011;12231;42.782;23.388;2022-12-20T04:52:49;16.03;;;10.27;;
19589;SDS011;12231;42.782;23.388;2022-12-20T04:55:37;20.33;;;11.13;;
19589;SDS011;12231;42.782;23.388;2022-12-20T04:58:04;24.47;;;13.70;;
19589;SDS011;12231;42.782;23.388;2022-12-20T05:00:29;24.33;;;13.90;;
19589;SDS011;12231;42.782;23.388;2022-12-20T05:02:56;17.80;;;11.53;;
19589;SDS011;12231;42.782;23.388;2022-12-20T05:05:21;18.67;;;10.67;;
19589;SDS011;12231;42.782;23.388;2022-12-20T05:07:47;62.03;;;31.00;;
19589;SDS011;12231;42.782;23.388;2022-12-20T05:10:12;40.80;;;21.90;;
19589;SDS011;12231;42.782;23.388;2022-12-20T05:12:37;19.00;;;10.93;;
19589;SDS011;12231;42.782;23.388;2022-12-20T05:15:03;16.83;;;11.07;;
19589;SDS011;12231;42.782;23.388;2022-12-20T05:17:29;20.97;;;11.23;;
19589;SDS011;12231;42.782;23.388;2022-12-20T05:19:54;21.37;;;10.23;;
19589;SDS011;12231;42.782;23.388;2022-12-20T05:22:19;19.20;;;10.50;;
19589;SDS011;12231;42.782;23.388;2022-12-20T05:25:04;18.43;;;12.43;;
19589;SDS011;12231;42.782;23.388;2022-12-20T05:27:48;22.53;;;13.37;;
19589;SDS011;12231;42.782;23.388;2022-12-20T05:30:13;18.83;;;11.40;;
19589;SDS011;12231;42.782;23.388;2022-12-20T05:32:40;15.27;;;10.20;;
19589;SDS011;12231;42.782;23.388;2022-12-20T05:35:05;18.50;;;10.87;;
19589;SDS011;12231;42.782;23.388;2022-12-20T05:37:32;22.80;;;12.30;;
19589;SDS011;12231;42.782;23.388;2022-12-20T05:39:57;19.90;;;11.17;;
19589;SDS011;12231;42.782;23.388;2022-12-20T05:42:23;28.17;;;13.47;;
19589;SDS011;12231;42.782;23.388;2022-12-20T05:44:49;23.70;;;12.53;;
19589;SDS011;12231;42.782;23.388;2022-12-20T05:47:15;30.27;;;13.97;;
19589;SDS011;12231;42.782;23.388;2022-12-20T05:49:40;30.83;;;13.13;;
19589;SDS011;12231;42.782;23.388;2022-12-20T05:52:06;30.03;;;15.07;;
19589;SDS011;12231;42.782;23.388;2022-12-20T05:54:31;35.73;;;19.60;;
19589;SDS011;12231;42.782;23.388;2022-12-20T05:56:57;29.50;;;16.80;;
19589;SDS011;12231;42.782;23.388;2022-12-20T05:59:22;25.53;;;14.03;;
19589;SDS011;12231;42.782;23.388;2022-12-20T06:01:48;24.83;;;12.43;;
19589;SDS011;12231;42.782;23.388;2022-12-20T06:04:13;17.60;;;10.73;;
19589;SDS011;12231;42.782;23.388;2022-12-20T06:06:38;21.07;;;10.53;;
19589;SDS011;12231;42.782;23.388;2022-12-20T06:09:04;24.50;;;12.83;;
19589;SDS011;12231;42.782;23.388;2022-12-20T06:11:29;25.07;;;11.70;;
19589;SDS011;12231;42.782;23.388;2022-12-20T06:13:55;21.80;;;12.07;;
19589;SDS011;12231;42.782;23.388;2022-12-20T06:16:20;30.10;;;16.97;;
19589;SDS011;12231;42.782;23.388;2022-12-20T06:18:47;19.37;;;13.60;;
19589;SDS011;12231;42.782;23.388;2022-12-20T06:21:13;22.03;;;10.10;;
19589;SDS011;12231;42.782;23.388;2022-12-20T06:23:39;21.27;;;11.27;;
19589;SDS011;12231;42.782;23.388;2022-12-20T06:26:04;15.10;;;9.03;;
19589;SDS011;12231;42.782;23.388;2022-12-20T06:28:33;21.00;;;12.13;;
19589;SDS011;12231;42.782;23.388;2022-12-20T06:30:58;21.60;;;12.10;;
19589;SDS011;12231;42.782;23.388;2022-12-20T06:33:24;19.50;;;11.63;;
19589;SDS011;12231;42.782;23.388;2022-12-20T06:35:49;18.97;;;10.20;;
19589;SDS011;12231;42.782;23.388;2022-12-20T06:38:15;16.57;;;10.37;;
19589;SDS011;12231;42.782;23.388;2022-12-20T06:40:40;18.23;;;9.83;;
19589;SDS011;12231;42.782;23.388;2022-12-20T06:43:06;13.87;;;8.37;;
19589;SDS011;12231;42.782;23.388;2022-12-20T06:45:31;16.60;;;10.20;;
19589;SDS011;12231;42.782;23.388;2022-12-20T06:47:57;13.47;;;9.50;;
19589;SDS011;12231;42.782;23.388;2022-12-20T06:50:22;19.83;;;11.70;;
19589;SDS011;12231;42.782;23.388;2022-12-20T06:52:48;21.87;;;13.07;;
19589;SDS011;12231;42.782;23.388;2022-12-20T06:55:14;19.60;;;12.57;;
19589;SDS011;12231;42.782;23.388;2022-12-20T06:57:39;13.50;;;8.73;;
19589;SDS011;12231;42.782;23.388;2022-12-20T07:00:05;20.50;;;11.33;;
19589;SDS011;12231;42.782;23.388;2022-12-20T07:02:32;12.83;;;8.27;;
19589;SDS011;12231;42.782;23.388;2022-12-20T07:04:58;18.17;;;10.27;;
19589;SDS011;12231;42.782;23.388;2022-12-20T07:07:23;13.60;;;7.83;;
19589;SDS011;12231;42.782;23.388;2022-12-20T07:09:48;15.97;;;8.30;;
19589;SDS011;12231;42.782;23.388;2022-12-20T07:12:14;16.10;;;8.13;;
19589;SDS011;12231;42.782;23.388;2022-12-20T07:14:39;13.13;;;7.80;;
19589;SDS011;12231;42.782;23.388;2022-12-20T07:17:05;11.13;;;7.73;;
19589;SDS011;12231;42.782;23.388;2022-12-20T07:19:31;15.70;;;8.80;;
19589;SDS011;12231;42.782;23.388;2022-12-20T07:21:57;23.80;;;11.07;;
19589;SDS011;12231;42.782;23.388;2022-12-20T07:24:22;13.30;;;7.23;;
19589;SDS011;12231;42.782;23.388;2022-12-20T07:26:48;15.00;;;8.57;;
19589;SDS011;12231;42.782;23.388;2022-12-20T07:29:13;14.93;;;8.47;;
19589;SDS011;12231;42.782;23.388;2022-12-20T07:31:39;20.60;;;11.20;;
19589;SDS011;12231;42.782;23.388;2022-12-20T07:34:04;18.60;;;9.20;;
19589;SDS011;12231;42.782;23.388;2022-12-20T07:36:30;17.57;;;8.47;;
19589;SDS011;12231;42.782;23.388;2022-12-20T07:38:55;15.10;;;8.33;;
19589;SDS011;12231;42.782;23.388;2022-12-20T07:41:21;13.83;;;8.50;;
19589;SDS011;12231;42.782;23.388;2022-12-20T07:43:47;13.73;;;9.17;;
19589;SDS011;12231;42.782;23.388;2022-12-20T07:46:13;13.50;;;7.50;;
19589;SDS011;12231;42.782;23.388;2022-12-20T07:48:39;10.67;;;5.90;;
19589;SDS011;12231;42.782;23.388;2022-12-20T07:51:06;12.17;;;6.63;;
19589;SDS011;12231;42.782;23.388;2022-12-20T07:53:42;15.17;;;8.60;;
19589;SDS011;12231;42.782;23.388;2022-12-20T07:56:15;15.07;;;8.80;;
19589;SDS011;12231;42.782;23.388;2022-12-20T07:58:42;13.90;;;7.00;;
19589;SDS011;12231;42.782;23.388;2022-12-20T08:01:08;12.80;;;6.47;;
19589;SDS011;12231;42.782;23.388;2022-12-20T08:03:43;11.80;;;7.20;;
19589;SDS011;12231;42.782;23.388;2022-12-20T08:06:11;11.90;;;6.70;;
19589;SDS011;12231;42.782;23.388;2022-12-20T08:08:40;8.57;;;5.47;;
19589;SDS011;12231;42.782;23.388;2022-12-20T08:11:08;20.70;;;10.40;;
19589;SDS011;12231;42.782;23.388;2022-12-20T08:13:35;13.10;;;6.50;;
19589;SDS011;12231;42.782;23.388;2022-12-20T08:16:01;9.60;;;5.77;;
19589;SDS011;12231;42.782;23.388;2022-12-20T08:18:27;10.27;;;5.73;;
19589;SDS011;12231;42.782;23.388;2022-12-20T08:20:52;9.90;;;6.80;;
19589;SDS011;12231;42.782;23.388;2022-12-20T08:23:17;13.57;;;6.63;;
19589;SDS011;12231;42.782;23.388;2022-12-20T08:25:43;10.43;;;6.10;;
19589;SDS011;12231;42.782;23.388;2022-12-20T08:28:09;12.93;;;6.47;;
19589;SDS011;12231;42.782;23.388;2022-12-20T08:30:35;10.07;;;5.97;;
19589;SDS011;12231;42.782;23.388;2022-12-20T08:33:00;13.03;;;7.17;;
19589;SDS011;12231;42.782;23.388;2022-12-20T08:35:26;11.03;;;6.73;;
19589;SDS011;12231;42.782;23.388;2022-12-20T08:37:51;14.80;;;8.67;;
19589;SDS011;12231;42.782;23.388;2022-12-20T08:40:17;9.67;;;6.03;;
19589;SDS011;12231;42.782;23.388;2022-12-20T08:42:43;9.10;;;5.97;;
19589;SDS011;12231;42.782;23.388;2022-12-20T08:45:09;11.37;;;6.10;;
19589;SDS011;12231;42.782;23.388;2022-12-20T08:47:35;10.53;;;6.13;;
19589;SDS011;12231;42.782;23.388;2022-12-20T08:50:00;9.17;;;6.20;;
19589;SDS011;12231;42.782;23.388;2022-12-20T08:52:27;13.87;;;6.53;;
19589;SDS011;12231;42.782;23.388;2022-12-20T08:54:53;11.33;;;6.70;;
19589;SDS011;12231;42.782;23.388;2022-12-20T08:57:19;12.43;;;6.10;;
19589;SDS011;12231;42.782;23.388;2022-12-20T08:59:44;8.43;;;6.30;;
19589;SDS011;12231;42.782;23.388;2022-12-20T09:02:09;13.63;;;6.00;;
19589;SDS011;12231;42.782;23.388;2022-12-20T09:04:35;8.43;;;5.57;;
19589;SDS011;12231;42.782;23.388;2022-12-20T09:07:00;10.80;;;6.37;;
19589;SDS011;12231;42.782;23.388;2022-12-20T09:09:26;6.90;;;4.93;;
19589;SDS011;12231;42.782;23.388;2022-12-20T09:11:51;11.93;;;6.23;;
19589;SDS011;12231;42.782;23.388;2022-12-20T09:14:17;10.93;;;6.63;;
19589;SDS011;12231;42.782;23.388;2022-12-20T09:16:43;9.23;;;6.43;;
19589;SDS011;12231;42.782;23.388;2022-12-20T09:19:12;11.03;;;5.63;;
19589;SDS011;12231;42.782;23.388;2022-12-20T09:21:38;10.43;;;4.80;;
19589;SDS011;12231;42.782;23.388;2022-12-20T09:24:04;8.83;;;5.63;;
19589;SDS011;12231;42.782;23.388;2022-12-20T09:26:30;10.67;;;5.40;;
19589;SDS011;12231;42.782;23.388;2022-12-20T09:28:56;8.57;;;4.90;;
19589;SDS011;12231;42.782;23.388;2022-12-20T09:31:22;9.73;;;5.13;;
19589;SDS011;12231;42.782;23.388;2022-12-20T09:33:52;10.47;;;4.57;;
19589;SDS011;12231;42.782;23.388;2022-12-20T09:36:22;11.07;;;5.77;;
19589;SDS011;12231;42.782;23.388;2022-12-20T09:38:49;8.50;;;6.10;;
19589;SDS011;12231;42.782;23.388;2022-12-20T09:41:25;8.67;;;5.67;;
19589;SDS011;12231;42.782;23.388;2022-12-20T09:46:48;9.33;;;3.80;;
19589;SDS011;12231;42.782;23.388;2022-12-20T09:49:18;9.47;;;4.87;;
19589;SDS011;12231;42.782;23.388;2022-12-20T09:54:45;9.30;;;4.90;;
19589;SDS011;12231;42.782;23.388;2022-12-20T10:00:20;12.07;;;5.07;;
19589;SDS011;12231;42.782;23.388;2022-12-20T10:02:46;8.77;;;5.07;;
19589;SDS011;12231;42.782;23.388;2022-12-20T10:05:17;6.70;;;4.40;;
19589;SDS011;12231;42.782;23.388;2022-12-20T10:15:57;7.43;;;4.23;;
19589;SDS011;12231;42.782;23.388;2022-12-20T10:26:49;7.10;;;3.80;;
19589;SDS011;12231;42.782;23.388;2022-12-20T10:29:16;7.57;;;4.10;;
19589;SDS011;12231;42.782;23.388;2022-12-20T10:31:42;6.03;;;4.20;;
19589;SDS011;12231;42.782;23.388;2022-12-20T10:34:07;7.50;;;4.60;;
19589;SDS011;12231;42.782;23.388;2022-12-20T10:36:33;8.47;;;4.83;;
19589;SDS011;12231;42.782;23.388;2022-12-20T10:39:04;9.23;;;5.00;;
19589;SDS011;12231;42.782;23.388;2022-12-20T10:41:32;8.30;;;4.43;;
19589;SDS011;12231;42.782;23.388;2022-12-20T10:44:23;8.00;;;3.97;;
19589;SDS011;12231;42.782;23.388;2022-12-20T10:46:57;7.30;;;3.97;;
19589;SDS011;12231;42.782;23.388;2022-12-20T10:49:37;5.50;;;2.93;;
19589;SDS011;12231;42.782;23.388;2022-12-20T10:54:39;7.40;;;4.23;;
19589;SDS011;12231;42.782;23.388;2022-12-20T10:57:23;8.00;;;4.13;;
19589;SDS011;12231;42.782;23.388;2022-12-20T11:02:28;7.80;;;5.00;;
19589;SDS011;12231;42.782;23.388;2022-12-20T11:07:26;8.13;;;3.83;;
19589;SDS011;12231;42.782;23.388;2022-12-20T11:09:54;6.87;;;4.63;;
19589;SDS011;12231;42.782;23.388;2022-12-20T11:12:22;5.63;;;3.87;;
19589;SDS011;12231;42.782;23.388;2022-12-20T11:14:47;7.93;;;4.23;;
19589;SDS011;12231;42.782;23.388;2022-12-20T11:19:57;8.97;;;5.70;;
19589;SDS011;12231;42.782;23.388;2022-12-20T11:22:45;8.60;;;5.13;;
19589;SDS011;12231;42.782;23.388;2022-12-20T11:25:38;13.47;;;5.67;;
19589;SDS011;12231;42.782;23.388;2022-12-20T11:31:38;19.87;;;9.33;;
19589;SDS011;12231;42.782;23.388;2022-12-20T11:37:19;10.23;;;5.20;;
19589;SDS011;12231;42.782;23.388;2022-12-20T11:42:39;10.77;;;4.63;;
19589;SDS011;12231;42.782;23.388;2022-12-20T11:50:39;10.90;;;4.97;;
19589;SDS011;12231;42.782;23.388;2022-12-20T11:53:24;20.73;;;5.03;;
19589;SDS011;12231;42.782;23.388;2022-12-20T11:55:56;8.73;;;3.50;;
19589;SDS011;12231;42.782;23.388;2022-12-20T11:58:26;6.00;;;4.00;;
19589;SDS011;12231;42.782;23.388;2022-12-20T12:01:09;6.33;;;3.90;;
19589;SDS011;12231;42.782;23.388;2022-12-20T12:03:38;17.63;;;6.20;;
19589;SDS011;12231;42.782;23.388;2022-12-20T12:06:17;11.30;;;5.90;;
19589;SDS011;12231;42.782;23.388;2022-12-20T12:08:58;6.60;;;3.73;;
19589;SDS011;12231;42.782;23.388;2022-12-20T12:11:41;6.73;;;4.30;;
19589;SDS011;12231;42.782;23.388;2022-12-20T12:14:15;9.30;;;4.33;;
19589;SDS011;12231;42.782;23.388;2022-12-20T12:17:01;6.60;;;3.73;;
19589;SDS011;12231;42.782;23.388;2022-12-20T12:19:33;9.13;;;5.17;;
19589;SDS011;12231;42.782;23.388;2022-12-20T12:22:06;11.00;;;3.90;;
19589;SDS011;12231;42.782;23.388;2022-12-20T12:24:42;6.27;;;3.50;;
19589;SDS011;12231;42.782;23.388;2022-12-20T12:27:17;6.00;;;4.00;;
19589;SDS011;12231;42.782;23.388;2022-12-20T12:29:47;9.97;;;5.17;;
19589;SDS011;12231;42.782;23.388;2022-12-20T12:46:33;10.00;;;4.90;;
19589;SDS011;12231;42.782;23.388;2022-12-20T12:49:03;10.07;;;5.70;;
19589;SDS011;12231;42.782;23.388;2022-12-20T12:51:42;39.73;;;7.23;;
19589;SDS011;12231;42.782;23.388;2022-12-20T12:56:46;9.87;;;5.83;;
19589;SDS011;12231;42.782;23.388;2022-12-20T13:06:56;13.07;;;7.43;;
19589;SDS011;12231;42.782;23.388;2022-12-20T13:11:51;8.33;;;3.60;;
19589;SDS011;12231;42.782;23.388;2022-12-20T13:16:52;17.13;;;6.33;;
19589;SDS011;12231;42.782;23.388;2022-12-20T13:21:56;18.53;;;9.20;;
19589;SDS011;12231;42.782;23.388;2022-12-20T13:27:34;25.50;;;11.23;;
19589;SDS011;12231;42.782;23.388;2022-12-20T13:40:24;20.77;;;9.27;;
19589;SDS011;12231;42.782;23.388;2022-12-20T13:48:45;8.57;;;3.50;;
19589;SDS011;12231;42.782;23.388;2022-12-20T13:51:17;15.47;;;8.27;;
19589;SDS011;12231;42.782;23.388;2022-12-20T13:53:59;9.00;;;4.97;;
19589;SDS011;12231;42.782;23.388;2022-12-20T13:59:13;12.10;;;7.30;;
19589;SDS011;12231;42.782;23.388;2022-12-20T14:01:51;15.03;;;10.00;;
19589;SDS011;12231;42.782;23.388;2022-12-20T14:04:20;33.43;;;13.13;;
19589;SDS011;12231;42.782;23.388;2022-12-20T14:06:53;29.77;;;15.47;;
19589;SDS011;12231;42.782;23.388;2022-12-20T14:14:43;46.80;;;23.13;;
19589;SDS011;12231;42.782;23.388;2022-12-20T14:17:29;24.33;;;12.57;;
19589;SDS011;12231;42.782;23.388;2022-12-20T14:22:28;21.73;;;10.97;;
19589;SDS011;12231;42.782;23.388;2022-12-20T14:24:54;12.50;;;8.13;;
19589;SDS011;12231;42.782;23.388;2022-12-20T14:27:20;14.23;;;8.90;;
19589;SDS011;12231;42.782;23.388;2022-12-20T14:29:45;12.67;;;7.67;;
19589;SDS011;12231;42.782;23.388;2022-12-20T14:32:16;18.83;;;8.20;;
19589;SDS011;12231;42.782;23.388;2022-12-20T14:34:43;12.50;;;7.60;;
19589;SDS011;12231;42.782;23.388;2022-12-20T14:37:16;9.67;;;6.70;;
19589;SDS011;12231;42.782;23.388;2022-12-20T14:40:24;13.83;;;8.17;;
19589;SDS011;12231;42.782;23.388;2022-12-20T14:42:43;53.27;;;25.07;;
19589;SDS011;12231;42.782;23.388;2022-12-20T14:47:37;53.77;;;23.93;;
19589;SDS011;12231;42.782;23.388;2022-12-20T14:50:19;52.33;;;24.20;;
19589;SDS011;12231;42.782;23.388;2022-12-20T14:52:50;49.30;;;23.70;;
19589;SDS011;12231;42.782;23.388;2022-12-20T14:55:17;32.30;;;16.93;;
19589;SDS011;12231;42.782;23.388;2022-12-20T14:57:46;35.27;;;21.73;;
19589;SDS011;12231;42.782;23.388;2022-12-20T15:00:32;29.43;;;17.30;;
19589;SDS011;12231;42.782;23.388;2022-12-20T15:03:09;41.93;;;19.97;;
19589;SDS011;12231;42.782;23.388;2022-12-20T15:05:45;41.10;;;19.17;;
19589;SDS011;12231;42.782;23.388;2022-12-20T15:10:42;25.53;;;16.00;;
19589;SDS011;12231;42.782;23.388;2022-12-20T15:13:14;19.07;;;10.27;;
19589;SDS011;12231;42.782;23.388;2022-12-20T15:15:41;14.33;;;9.57;;
19589;SDS011;12231;42.782;23.388;2022-12-20T15:18:16;15.33;;;9.10;;
19589;SDS011;12231;42.782;23.388;2022-12-20T15:20:43;26.47;;;13.20;;
19589;SDS011;12231;42.782;23.388;2022-12-20T15:23:13;21.10;;;11.27;;
19589;SDS011;12231;42.782;23.388;2022-12-20T15:25:43;45.67;;;17.77;;
19589;SDS011;12231;42.782;23.388;2022-12-20T15:28:19;62.57;;;24.37;;
19589;SDS011;12231;42.782;23.388;2022-12-20T15:30:47;38.80;;;18.60;;
19589;SDS011;12231;42.782;23.388;2022-12-20T15:33:18;24.20;;;13.13;;
19589;SDS011;12231;42.782;23.388;2022-12-20T15:35:47;16.17;;;9.60;;
19589;SDS011;12231;42.782;23.388;2022-12-20T15:38:13;25.90;;;11.40;;
19589;SDS011;12231;42.782;23.388;2022-12-20T15:40:43;28.00;;;11.27;;
19589;SDS011;12231;42.782;23.388;2022-12-20T15:43:13;24.20;;;12.27;;
19589;SDS011;12231;42.782;23.388;2022-12-20T15:45:41;20.83;;;10.53;;
19589;SDS011;12231;42.782;23.388;2022-12-20T15:48:18;22.27;;;11.10;;
19589;SDS011;12231;42.782;23.388;2022-12-20T15:50:49;23.90;;;11.97;;
19589;SDS011;12231;42.782;23.388;2022-12-20T15:53:23;21.37;;;12.60;;
19589;SDS011;12231;42.782;23.388;2022-12-20T15:55:55;20.13;;;11.10;;
19589;SDS011;12231;42.782;23.388;2022-12-20T15:58:21;21.37;;;9.80;;
19589;SDS011;12231;42.782;23.388;2022-12-20T16:00:48;26.77;;;12.17;;
19589;SDS011;12231;42.782;23.388;2022-12-20T16:03:16;24.40;;;11.77;;
19589;SDS011;12231;42.782;23.388;2022-12-20T16:05:44;33.53;;;16.47;;
19589;SDS011;12231;42.782;23.388;2022-12-20T16:08:11;27.83;;;13.13;;
19589;SDS011;12231;42.782;23.388;2022-12-20T16:10:36;34.90;;;16.67;;
19589;SDS011;12231;42.782;23.388;2022-12-20T16:13:02;25.43;;;14.70;;
19589;SDS011;12231;42.782;23.388;2022-12-20T16:15:28;39.10;;;19.90;;
19589;SDS011;12231;42.782;23.388;2022-12-20T16:17:54;20.50;;;11.20;;
19589;SDS011;12231;42.782;23.388;2022-12-20T16:20:19;23.97;;;11.87;;
19589;SDS011;12231;42.782;23.388;2022-12-20T16:22:44;19.37;;;11.67;;
19589;SDS011;12231;42.782;23.388;2022-12-20T16:25:22;26.90;;;13.57;;
19589;SDS011;12231;42.782;23.388;2022-12-20T16:27:53;17.30;;;10.17;;
19589;SDS011;12231;42.782;23.388;2022-12-20T16:30:18;15.97;;;9.50;;
19589;SDS011;12231;42.782;23.388;2022-12-20T16:32:43;17.47;;;9.67;;
19589;SDS011;12231;42.782;23.388;2022-12-20T16:35:16;21.13;;;12.03;;
19589;SDS011;12231;42.782;23.388;2022-12-20T16:37:48;25.93;;;14.20;;
19589;SDS011;12231;42.782;23.388;2022-12-20T16:40:14;23.57;;;12.37;;
19589;SDS011;12231;42.782;23.388;2022-12-20T16:42:39;18.10;;;9.77;;